Time;durP1;ratioP1;P1;durP2;ratioP2;P2;SDS_P1;SDS_P2;PMS_P1;PMS_P2;Temp;Humidity;BMP_temperature;BMP_pressure;BME280_temperature;BME280_humidity;BME280_pressure;Samples;Min_cycle;Max_cycle;Signal;HPM_P1;HPM_P2
2023/01/12 00:02:11;;;;;;;30.00;4.88;;;;;;;;;;5035051;28;20048;-67
2023/01/12 00:04:38;;;;;;;28.23;6.00;;;;;;;;;;5034572;28;20033;-67
2023/01/12 00:07:07;;;;;;;36.08;5.68;;;;;;;;;;5034635;28;20025;-67
2023/01/12 00:09:34;;;;;;;29.75;6.00;;;;;;;;;;5034917;28;20045;-67
2023/01/12 00:12:00;;;;;;;27.33;5.53;;;;;;;;;;5034691;28;20049;-67
2023/01/12 00:14:26;;;;;;;23.38;4.88;;;;;;;;;;5033258;28;20037;-67
2023/01/12 00:16:52;;;;;;;30.20;6.30;;;;;;;;;;5034262;28;20087;-67
2023/01/12 00:19:20;;;;;;;35.08;5.57;;;;;;;;;;5034618;28;20029;-67
2023/01/12 00:22:01;;;;;;;27.70;6.43;;;;;;;;;;5034608;28;20040;-67
2023/01/12 00:24:29;;;;;;;27.75;4.50;;;;;;;;;;5034362;28;20030;-67
2023/01/12 00:26:55;;;;;;;24.67;4.20;;;;;;;;;;5034190;28;20397;-67
2023/01/12 00:29:22;;;;;;;35.40;5.65;;;;;;;;;;5034224;28;20030;-66
2023/01/12 00:31:48;;;;;;;35.08;6.43;;;;;;;;;;5034153;28;20048;-67
2023/01/12 00:34:15;;;;;;;41.35;6.32;;;;;;;;;;5024493;28;20033;-67
2023/01/12 00:36:41;;;;;;;37.08;5.78;;;;;;;;;;5014580;28;20034;-67
2023/01/12 00:39:07;;;;;;;38.25;5.40;;;;;;;;;;5014210;28;20029;-67
2023/01/12 00:47:06;;;;;;;31.65;5.13;;;;;;;;;;5014032;28;20033;-67
2023/01/12 00:49:32;;;;;;;39.25;6.30;;;;;;;;;;5014366;28;20076;-66
2023/01/12 00:51:58;;;;;;;43.13;5.80;;;;;;;;;;5014178;28;20029;-67
2023/01/12 00:54:24;;;;;;;40.20;5.85;;;;;;;;;;5014074;28;20025;-67
2023/01/12 00:56:50;;;;;;;44.53;6.47;;;;;;;;;;5013979;28;20128;-67
2023/01/12 00:59:16;;;;;;;37.58;5.93;;;;;;;;;;5014048;28;20029;-67
2023/01/12 01:01:42;;;;;;;31.83;6.03;;;;;;;;;;5013763;28;20068;-67
2023/01/12 01:04:08;;;;;;;38.75;6.18;;;;;;;;;;5021353;28;20029;-67
2023/01/12 01:06:38;;;;;;;31.88;6.45;;;;;;;;;;5032812;28;20029;-67
2023/01/12 01:09:04;;;;;;;39.72;5.47;;;;;;;;;;5033779;28;20034;-67
2023/01/12 01:11:31;;;;;;;43.95;5.63;;;;;;;;;;5033724;28;20042;-67
2023/01/12 01:13:58;;;;;;;27.98;6.65;;;;;;;;;;5033403;28;20558;-67
2023/01/12 01:16:24;;;;;;;46.22;7.05;;;;;;;;;;5033253;28;20018;-67
2023/01/12 01:18:51;;;;;;;41.50;8.10;;;;;;;;;;5033649;28;20431;-67
2023/01/12 01:21:17;;;;;;;35.53;6.80;;;;;;;;;;5031953;28;20409;-67
2023/01/12 01:23:43;;;;;;;34.50;5.50;;;;;;;;;;5033643;28;20064;-67
2023/01/12 01:26:17;;;;;;;35.90;6.25;;;;;;;;;;5032964;28;20087;-67
2023/01/12 01:28:43;;;;;;;20.92;4.63;;;;;;;;;;5033232;28;20042;-67
2023/01/12 01:31:13;;;;;;;25.75;5.28;;;;;;;;;;5032721;28;20029;-67
2023/01/12 01:33:40;;;;;;;30.17;5.78;;;;;;;;;;5033192;28;20446;-67
2023/01/12 01:36:06;;;;;;;30.52;5.28;;;;;;;;;;5032897;28;20068;-67
2023/01/12 01:38:33;;;;;;;38.38;6.32;;;;;;;;;;5033518;28;20033;-67
2023/01/12 01:40:59;;;;;;;44.55;6.22;;;;;;;;;;5033181;28;20438;-67
2023/01/12 01:43:26;;;;;;;27.55;5.57;;;;;;;;;;5033072;28;20029;-67
2023/01/12 01:46:13;;;;;;;37.63;5.60;;;;;;;;;;5032999;28;20043;-67
2023/01/12 01:48:40;;;;;;;29.30;5.13;;;;;;;;;;5032343;28;20017;-67
2023/01/12 01:51:11;;;;;;;29.98;5.68;;;;;;;;;;5032830;28;20052;-67
2023/01/12 01:53:39;;;;;;;34.58;4.93;;;;;;;;;;5032779;28;20041;-67
2023/01/12 01:56:11;;;;;;;39.85;5.70;;;;;;;;;;5032776;28;20044;-67
2023/01/12 01:58:42;;;;;;;29.17;4.95;;;;;;;;;;5032686;28;20060;-67
2023/01/12 02:01:09;;;;;;;35.85;5.40;;;;;;;;;;5032575;28;20051;-67
2023/01/12 02:03:35;;;;;;;32.28;5.57;;;;;;;;;;5032691;28;20036;-67
2023/01/12 02:06:01;;;;;;;29.88;5.65;;;;;;;;;;5031441;28;20033;-67
2023/01/12 02:08:33;;;;;;;25.42;4.57;;;;;;;;;;5032242;28;20379;-67
2023/01/12 02:11:00;;;;;;;32.15;6.35;;;;;;;;;;5031693;28;20029;-67
2023/01/12 02:16:19;;;;;;;31.92;6.57;;;;;;;;;;5032356;28;20540;-67
2023/01/12 02:18:45;;;;;;;30.48;6.25;;;;;;;;;;5032551;28;20105;-67
2023/01/12 02:21:30;;;;;;;28.65;4.25;;;;;;;;;;5032674;28;20026;-67
2023/01/12 02:24:15;;;;;;;27.10;4.50;;;;;;;;;;5032661;28;20033;-67
2023/01/12 02:26:41;;;;;;;32.80;6.28;;;;;;;;;;5032476;28;20032;-67
2023/01/12 02:29:16;;;;;;;28.50;4.60;;;;;;;;;;5032125;28;20076;-67
2023/01/12 02:31:46;;;;;;;32.75;5.95;;;;;;;;;;5032563;28;20044;-67
2023/01/12 02:34:30;;;;;;;27.13;4.25;;;;;;;;;;5031156;28;20033;-67
2023/01/12 02:37:16;;;;;;;25.33;4.70;;;;;;;;;;5031098;28;20041;-67
2023/01/12 02:39:51;;;;;;;36.60;5.13;;;;;;;;;;5000678;28;20079;-67
2023/01/12 02:42:42;;;;;;;37.75;5.05;;;;;;;;;;5020104;28;20057;-67
2023/01/12 02:45:20;;;;;;;27.35;4.25;;;;;;;;;;5026358;28;20113;-67
2023/01/12 02:47:57;;;;;;;32.15;6.05;;;;;;;;;;5000878;28;20481;-67
2023/01/12 02:50:38;;;;;;;24.27;4.25;;;;;;;;;;5019944;28;20049;-67
2023/01/12 02:53:09;;;;;;;29.15;4.97;;;;;;;;;;5025872;28;20042;-67
2023/01/12 02:55:36;;;;;;;35.67;5.75;;;;;;;;;;5013469;28;20033;-67
2023/01/12 02:58:04;;;;;;;31.50;5.60;;;;;;;;;;5022259;28;20052;-67
2023/01/12 03:00:31;;;;;;;32.95;5.07;;;;;;;;;;5020531;28;20025;-67
2023/01/12 03:02:57;;;;;;;24.15;4.78;;;;;;;;;;5015206;28;20050;-67
2023/01/12 03:05:25;;;;;;;29.63;5.45;;;;;;;;;;5009847;28;20045;-67
2023/01/12 03:07:54;;;;;;;30.73;4.78;;;;;;;;;;5009444;28;20532;-67
2023/01/12 03:10:43;;;;;;;28.55;4.55;;;;;;;;;;5010006;28;20063;-67
2023/01/12 03:13:14;;;;;;;35.90;5.80;;;;;;;;;;5009604;28;20034;-67
2023/01/12 03:15:49;;;;;;;27.00;5.60;;;;;;;;;;5010014;28;20052;-67
2023/01/12 03:18:21;;;;;;;33.15;4.88;;;;;;;;;;5012015;28;20026;-67
2023/01/12 03:20:52;;;;;;;28.23;5.93;;;;;;;;;;5012271;28;20022;-67
2023/01/12 03:23:21;;;;;;;24.92;4.60;;;;;;;;;;5011977;28;20038;-67
2023/01/12 03:25:48;;;;;;;29.38;4.80;;;;;;;;;;5012153;28;20025;-67
2023/01/12 03:28:16;;;;;;;22.95;4.13;;;;;;;;;;5011611;28;20034;-67
2023/01/12 03:30:45;;;;;;;28.58;4.35;;;;;;;;;;5033663;28;20060;-67
2023/01/12 03:33:12;;;;;;;20.80;4.10;;;;;;;;;;5035138;28;20040;-67
2023/01/12 03:35:43;;;;;;;22.23;4.70;;;;;;;;;;5034854;28;20486;-68
2023/01/12 03:38:17;;;;;;;22.73;3.75;;;;;;;;;;5034681;28;20025;-67
2023/01/12 03:40:46;;;;;;;25.63;6.65;;;;;;;;;;5034142;28;20017;-67
2023/01/12 03:43:14;;;;;;;17.63;3.20;;;;;;;;;;5035103;28;20033;-67
2023/01/12 03:45:44;;;;;;;22.38;3.50;;;;;;;;;;5035002;28;20053;-67
2023/01/12 03:48:19;;;;;;;16.23;3.15;;;;;;;;;;5044692;28;20037;-68
2023/01/12 03:50:49;;;;;;;21.83;3.58;;;;;;;;;;5015677;28;20042;-67
2023/01/12 03:53:16;;;;;;;19.98;3.15;;;;;;;;;;5015639;28;20025;-67
2023/01/12 03:55:42;;;;;;;14.55;2.83;;;;;;;;;;5015208;28;20030;-67
2023/01/12 03:58:09;;;;;;;23.45;3.40;;;;;;;;;;5015579;28;20050;-67
2023/01/12 04:00:35;;;;;;;22.02;4.18;;;;;;;;;;5015764;28;20382;-67
2023/01/12 04:03:09;;;;;;;24.13;3.05;;;;;;;;;;5043662;28;20021;-67
2023/01/12 04:05:35;;;;;;;18.40;2.90;;;;;;;;;;5052935;28;20064;-67
2023/01/12 04:08:01;;;;;;;13.70;3.20;;;;;;;;;;5035028;28;20025;-67
2023/01/12 04:10:27;;;;;;;22.00;2.85;;;;;;;;;;5034850;28;20485;-67
2023/01/12 04:12:53;;;;;;;18.98;3.00;;;;;;;;;;5035015;28;20030;-67
2023/01/12 04:15:20;;;;;;;18.65;3.08;;;;;;;;;;5034836;28;20056;-67
2023/01/12 04:17:46;;;;;;;25.70;4.75;;;;;;;;;;5034718;28;20108;-67
2023/01/12 04:20:12;;;;;;;19.15;3.80;;;;;;;;;;5035667;28;20033;-67
2023/01/12 04:22:44;;;;;;;19.38;3.63;;;;;;;;;;5035765;28;20025;-67
2023/01/12 04:25:17;;;;;;;25.67;4.30;;;;;;;;;;5034513;28;20469;-67
2023/01/12 04:27:49;;;;;;;22.55;2.97;;;;;;;;;;5034664;28;20088;-67
2023/01/12 04:30:17;;;;;;;22.15;4.18;;;;;;;;;;5033344;28;20022;-67
2023/01/12 04:32:44;;;;;;;28.25;4.50;;;;;;;;;;5034387;28;20032;-67
2023/01/12 04:35:11;;;;;;;29.70;3.85;;;;;;;;;;5033059;28;20033;-67
2023/01/12 04:37:37;;;;;;;37.10;4.45;;;;;;;;;;5033323;28;20114;-67
2023/01/12 04:40:04;;;;;;;25.90;4.95;;;;;;;;;;5022032;28;20037;-67
2023/01/12 04:45:14;;;;;;;22.85;4.32;;;;;;;;;;5034448;28;20030;-67
2023/01/12 04:47:41;;;;;;;29.23;4.10;;;;;;;;;;5034042;28;20397;-67
2023/01/12 04:50:07;;;;;;;25.20;3.53;;;;;;;;;;5034196;28;20108;-66
2023/01/12 04:52:34;;;;;;;23.60;3.13;;;;;;;;;;5034094;28;20105;-66
2023/01/12 04:55:00;;;;;;;26.20;4.55;;;;;;;;;;5033977;28;20461;-67
2023/01/12 04:57:26;;;;;;;20.67;4.00;;;;;;;;;;5035050;28;20029;-66
2023/01/12 04:59:52;;;;;;;30.55;4.97;;;;;;;;;;5033987;28;20028;-66
2023/01/12 05:02:19;;;;;;;26.95;4.95;;;;;;;;;;5033783;28;20053;-67
2023/01/12 05:04:48;;;;;;;32.45;4.32;;;;;;;;;;5032958;28;20033;-66
2023/01/12 05:07:14;;;;;;;29.25;4.32;;;;;;;;;;5029721;28;20557;-67
2023/01/12 05:12:25;;;;;;;27.55;5.55;;;;;;;;;;5033608;28;20044;-66
2023/01/12 05:14:51;;;;;;;23.92;3.75;;;;;;;;;;5033431;28;20104;-66
2023/01/12 05:17:17;;;;;;;33.85;3.92;;;;;;;;;;5032618;28;20113;-66
2023/01/12 05:19:43;;;;;;;27.00;3.78;;;;;;;;;;5033354;28;20473;-67
2023/01/12 05:22:10;;;;;;;36.03;4.50;;;;;;;;;;5034257;28;20437;-67
2023/01/12 05:24:36;;;;;;;27.25;4.40;;;;;;;;;;5032424;28;20033;-66
2023/01/12 05:27:02;;;;;;;21.23;3.70;;;;;;;;;;5033210;28;20060;-67
2023/01/12 05:29:28;;;;;;;13.40;3.03;;;;;;;;;;5033216;28;20017;-67
2023/01/12 05:31:54;;;;;;;20.85;3.08;;;;;;;;;;5033023;28;20040;-66
2023/01/12 05:34:20;;;;;;;20.67;2.90;;;;;;;;;;5032360;28;20480;-67
2023/01/12 05:36:47;;;;;;;21.88;3.55;;;;;;;;;;5031608;28;20075;-67
2023/01/12 05:39:13;;;;;;;21.00;3.47;;;;;;;;;;5027330;28;20057;-67
2023/01/12 05:44:24;;;;;;;29.80;4.55;;;;;;;;;;5028210;28;20033;-67
2023/01/12 05:46:50;;;;;;;17.15;4.15;;;;;;;;;;5031896;28;20059;-67
2023/01/12 05:49:16;;;;;;;17.92;3.33;;;;;;;;;;5032141;28;20105;-66
2023/01/12 05:51:42;;;;;;;16.50;3.15;;;;;;;;;;5031711;28;20029;-66
2023/01/12 05:54:08;;;;;;;12.55;2.75;;;;;;;;;;5032590;28;20030;-67
2023/01/12 05:56:35;;;;;;;16.63;3.22;;;;;;;;;;5032623;28;20032;-66
2023/01/12 05:59:03;;;;;;;18.52;3.38;;;;;;;;;;5030837;28;20025;-66
2023/01/12 06:01:29;;;;;;;19.52;3.50;;;;;;;;;;5030333;28;20095;-66
2023/01/12 06:03:56;;;;;;;25.88;3.20;;;;;;;;;;5022285;28;20032;-67
2023/01/12 06:06:24;;;;;;;23.27;4.68;;;;;;;;;;5026554;28;20106;-66
2023/01/12 06:08:51;;;;;;;21.77;4.15;;;;;;;;;;5031747;28;20501;-67
2023/01/12 06:14:03;;;;;;;16.88;3.53;;;;;;;;;;5020794;28;20473;-67
2023/01/12 06:16:29;;;;;;;18.67;3.75;;;;;;;;;;5026116;28;20018;-67
2023/01/12 06:18:55;;;;;;;22.17;3.50;;;;;;;;;;5024015;28;20401;-67
2023/01/12 06:21:22;;;;;;;22.70;4.43;;;;;;;;;;5027650;28;20026;-67
2023/01/12 06:23:48;;;;;;;17.30;3.28;;;;;;;;;;5021103;28;20021;-67
2023/01/12 06:26:14;;;;;;;27.23;3.80;;;;;;;;;;5020948;28;20033;-67
2023/01/12 06:28:41;;;;;;;27.42;3.58;;;;;;;;;;5024371;28;20444;-67
2023/01/12 06:31:09;;;;;;;17.08;3.45;;;;;;;;;;5026823;28;20057;-67
2023/01/12 06:33:35;;;;;;;16.27;3.75;;;;;;;;;;5032199;28;20124;-67
2023/01/12 06:36:02;;;;;;;20.98;4.25;;;;;;;;;;5026858;28;20077;-67
2023/01/12 06:38:29;;;;;;;20.45;2.92;;;;;;;;;;5032836;28;20100;-66
2023/01/12 06:40:56;;;;;;;20.45;3.03;;;;;;;;;;5016920;28;20487;-67
2023/01/12 06:43:23;;;;;;;18.20;3.33;;;;;;;;;;5029960;28;20416;-67
2023/01/12 06:45:53;;;;;;;19.52;3.53;;;;;;;;;;5032545;28;20068;-68
2023/01/12 06:48:24;;;;;;;14.82;3.53;;;;;;;;;;5035316;28;20033;-67
2023/01/12 06:51:04;;;;;;;14.70;3.45;;;;;;;;;;5032341;28;20428;-67
2023/01/12 06:53:30;;;;;;;17.60;2.80;;;;;;;;;;5031868;28;20116;-67
2023/01/12 06:55:56;;;;;;;28.13;5.00;;;;;;;;;;5032113;28;20101;-67
2023/01/12 06:58:22;;;;;;;28.00;3.67;;;;;;;;;;5032282;28;20041;-67
2023/01/12 07:00:49;;;;;;;25.88;3.78;;;;;;;;;;5033776;28;20060;-67
2023/01/12 07:03:16;;;;;;;22.25;5.75;;;;;;;;;;5030917;28;20125;-67
2023/01/12 07:05:42;;;;;;;25.35;3.97;;;;;;;;;;5034730;28;20029;-67
2023/01/12 07:08:09;;;;;;;23.00;3.55;;;;;;;;;;5035062;28;20030;-67
2023/01/12 07:10:36;;;;;;;27.63;4.88;;;;;;;;;;5035963;28;20093;-67
2023/01/12 07:13:02;;;;;;;24.23;4.13;;;;;;;;;;5035271;28;20124;-67
2023/01/12 07:15:28;;;;;;;22.05;4.68;;;;;;;;;;5035584;28;20037;-67
2023/01/12 07:17:55;;;;;;;34.50;4.97;;;;;;;;;;5035058;28;20036;-67
2023/01/12 07:20:22;;;;;;;24.35;4.28;;;;;;;;;;5035552;28;20017;-67
2023/01/12 07:22:48;;;;;;;32.25;4.38;;;;;;;;;;5035684;28;20393;-67
2023/01/12 07:25:14;;;;;;;22.45;4.32;;;;;;;;;;5047666;28;20036;-67
2023/01/12 07:27:47;;;;;;;31.60;5.35;;;;;;;;;;5049166;28;20109;-67
2023/01/12 07:30:13;;;;;;;27.05;5.03;;;;;;;;;;5030048;28;20026;-67
2023/01/12 07:32:39;;;;;;;23.25;4.70;;;;;;;;;;5033908;28;20144;-66
2023/01/12 07:35:05;;;;;;;25.80;5.30;;;;;;;;;;5043022;28;20060;-67
2023/01/12 07:37:32;;;;;;;32.08;5.03;;;;;;;;;;5039864;28;20030;-67
2023/01/12 07:39:58;;;;;;;26.23;4.80;;;;;;;;;;5035558;28;20401;-66
2023/01/12 07:42:24;;;;;;;25.70;4.43;;;;;;;;;;5035543;28;20045;-66
2023/01/12 07:44:51;;;;;;;29.08;3.72;;;;;;;;;;5033562;28;20030;-66
2023/01/12 07:47:17;;;;;;;30.35;5.00;;;;;;;;;;5043600;28;20363;-66
2023/01/12 07:49:43;;;;;;;29.38;4.50;;;;;;;;;;5035198;28;20030;-66
2023/01/12 07:52:12;;;;;;;29.42;4.57;;;;;;;;;;5029997;28;20037;-66
2023/01/12 07:54:38;;;;;;;34.58;4.60;;;;;;;;;;5036821;28;20072;-66
2023/01/12 07:57:07;;;;;;;32.95;4.60;;;;;;;;;;5035655;28;20029;-66
2023/01/12 07:59:33;;;;;;;24.33;5.22;;;;;;;;;;5034888;28;20028;-66
2023/01/12 08:01:59;;;;;;;32.22;5.40;;;;;;;;;;5031282;28;20022;-66
2023/01/12 08:04:25;;;;;;;24.40;5.00;;;;;;;;;;5033810;28;20391;-66
2023/01/12 08:06:51;;;;;;;27.27;4.53;;;;;;;;;;5034970;28;20382;-66
2023/01/12 08:09:17;;;;;;;26.50;5.13;;;;;;;;;;5035567;28;20061;-66
2023/01/12 08:11:43;;;;;;;19.58;4.15;;;;;;;;;;5025127;28;20026;-66
2023/01/12 08:14:12;;;;;;;29.70;4.50;;;;;;;;;;5034018;28;20021;-66
2023/01/12 08:16:40;;;;;;;31.65;4.85;;;;;;;;;;5033026;28;20029;-66
2023/01/12 08:19:11;;;;;;;25.10;4.18;;;;;;;;;;5033355;28;20118;-66
2023/01/12 08:21:44;;;;;;;24.80;4.70;;;;;;;;;;5035527;28;20033;-66
2023/01/12 08:24:13;;;;;;;24.17;5.38;;;;;;;;;;5030835;28;20029;-66
2023/01/12 08:26:41;;;;;;;18.63;3.83;;;;;;;;;;5033431;28;20029;-66
2023/01/12 08:29:10;;;;;;;30.48;4.63;;;;;;;;;;5033781;28;20028;-66
2023/01/12 08:31:37;;;;;;;19.13;3.42;;;;;;;;;;5024405;28;20567;-66
2023/01/12 08:34:03;;;;;;;27.25;3.80;;;;;;;;;;5033602;28;20041;-66
2023/01/12 08:36:31;;;;;;;25.58;3.75;;;;;;;;;;5024105;28;20601;-66
2023/01/12 08:38:57;;;;;;;24.88;5.82;;;;;;;;;;5032971;28;20025;-66
2023/01/12 08:41:32;;;;;;;22.67;3.75;;;;;;;;;;5033256;28;20091;-66
2023/01/12 08:44:09;;;;;;;23.08;3.50;;;;;;;;;;5029389;28;20057;-66
2023/01/12 08:46:37;;;;;;;32.13;4.07;;;;;;;;;;5038242;28;20025;-66
2023/01/12 08:49:04;;;;;;;25.38;4.00;;;;;;;;;;5036816;28;20025;-66
2023/01/12 08:51:30;;;;;;;33.95;4.60;;;;;;;;;;5033920;28;20091;-65
2023/01/12 08:53:56;;;;;;;24.88;4.35;;;;;;;;;;5033740;28;20076;-65
2023/01/12 08:56:22;;;;;;;25.02;4.57;;;;;;;;;;5028555;28;20026;-65
2023/01/12 08:58:48;;;;;;;20.63;3.65;;;;;;;;;;5031050;28;20028;-65
2023/01/12 09:01:15;;;;;;;36.30;4.63;;;;;;;;;;5033148;28;20056;-65
2023/01/12 09:03:43;;;;;;;33.40;4.72;;;;;;;;;;5031213;28;20029;-66
2023/01/12 09:06:32;;;;;;;21.75;4.40;;;;;;;;;;5015145;28;20030;-65
2023/01/12 09:08:59;;;;;;;32.70;4.93;;;;;;;;;;5034337;28;20470;-65
2023/01/12 09:11:26;;;;;;;29.35;4.55;;;;;;;;;;5028308;28;20061;-65
2023/01/12 09:13:54;;;;;;;31.27;5.45;;;;;;;;;;5029725;28;20095;-65
2023/01/12 09:16:21;;;;;;;25.83;4.30;;;;;;;;;;5029676;28;20105;-65
2023/01/12 09:18:47;;;;;;;22.15;3.90;;;;;;;;;;5024394;28;20117;-65
2023/01/12 09:21:14;;;;;;;26.15;4.50;;;;;;;;;;5034286;28;20430;-65
2023/01/12 09:23:40;;;;;;;30.98;4.13;;;;;;;;;;5032068;28;20048;-65
2023/01/12 09:26:08;;;;;;;25.77;3.92;;;;;;;;;;5026766;28;20028;-66
2023/01/12 09:28:34;;;;;;;21.90;3.72;;;;;;;;;;5029794;28;20033;-66
2023/01/12 09:31:05;;;;;;;17.40;4.10;;;;;;;;;;5031803;28;20101;-67
2023/01/12 09:33:31;;;;;;;22.00;4.40;;;;;;;;;;5027386;28;20044;-66
2023/01/12 09:36:17;;;;;;;15.45;3.97;;;;;;;;;;5032016;28;20091;-67
2023/01/12 09:38:43;;;;;;;16.48;3.20;;;;;;;;;;5029028;28;20101;-67
2023/01/12 09:41:09;;;;;;;16.13;4.05;;;;;;;;;;5029818;28;20385;-65
2023/01/12 09:49:17;;;;;;;15.90;3.63;;;;;;;;;;5031054;28;20029;-66
2023/01/12 09:51:56;;;;;;;27.30;3.60;;;;;;;;;;5028506;28;20036;-65
2023/01/12 09:54:22;;;;;;;19.00;4.32;;;;;;;;;;5024401;28;20034;-66
2023/01/12 09:56:54;;;;;;;33.70;5.57;;;;;;;;;;5031238;28;20358;-66
2023/01/12 09:59:38;;;;;;;24.88;4.25;;;;;;;;;;5027977;28;20097;-65
2023/01/12 10:02:08;;;;;;;24.08;4.25;;;;;;;;;;5031440;28;20029;-65
2023/01/12 10:04:36;;;;;;;23.20;4.28;;;;;;;;;;5031245;28;20033;-65
2023/01/12 10:07:02;;;;;;;26.63;4.03;;;;;;;;;;5036788;28;20465;-65
2023/01/12 10:09:28;;;;;;;26.20;4.00;;;;;;;;;;5031379;28;20474;-66
2023/01/12 10:12:00;;;;;;;25.30;4.47;;;;;;;;;;5031349;28;20351;-66
2023/01/12 10:14:32;;;;;;;27.25;4.63;;;;;;;;;;5031612;28;20090;-65
2023/01/12 10:17:01;;;;;;;24.60;4.05;;;;;;;;;;5028618;28;20014;-65
2023/01/12 10:19:42;;;;;;;19.58;4.70;;;;;;;;;;5026956;28;20078;-65
2023/01/12 10:22:35;;;;;;;27.23;4.35;;;;;;;;;;5025498;28;20028;-65
2023/01/12 10:25:05;;;;;;;24.85;4.85;;;;;;;;;;5030240;28;20120;-65
2023/01/12 10:27:33;;;;;;;26.23;4.80;;;;;;;;;;5030206;28;20033;-66
2023/01/12 10:29:59;;;;;;;25.42;4.53;;;;;;;;;;5030115;28;20405;-66
2023/01/12 10:32:26;;;;;;;27.08;3.55;;;;;;;;;;5024605;28;20064;-66
2023/01/12 10:34:52;;;;;;;30.90;4.47;;;;;;;;;;5030908;28;20056;-66
2023/01/12 10:37:19;;;;;;;30.23;4.57;;;;;;;;;;5031175;28;20409;-66
2023/01/12 10:39:45;;;;;;;33.13;4.55;;;;;;;;;;5035243;28;20347;-66
2023/01/12 10:43:17;;;;;;;24.85;4.00;;;;;;;;;;5031505;28;20136;-66
2023/01/12 10:45:20;;;;;;;24.13;5.05;;;;;;;;;;5028065;28;20037;-66
2023/01/12 10:47:49;;;;;;;23.15;4.75;;;;;;;;;;5032815;28;20044;-66
2023/01/12 10:50:15;;;;;;;23.90;4.68;;;;;;;;;;5032728;28;20119;-66
2023/01/12 10:52:43;;;;;;;30.13;4.78;;;;;;;;;;5037916;28;20026;-66
2023/01/12 10:55:17;;;;;;;22.38;3.95;;;;;;;;;;5033172;28;20155;-66
2023/01/12 10:57:44;;;;;;;31.75;4.97;;;;;;;;;;5041156;28;20041;-66
2023/01/12 11:00:18;;;;;;;30.45;5.43;;;;;;;;;;5032625;28;20018;-66
2023/01/12 11:02:44;;;;;;;28.05;5.30;;;;;;;;;;5029623;28;20406;-66
2023/01/12 11:05:30;;;;;;;27.98;5.85;;;;;;;;;;5034546;28;20462;-66
2023/01/12 11:07:57;;;;;;;34.20;5.07;;;;;;;;;;5026274;28;20507;-66
2023/01/12 11:10:30;;;;;;;31.48;4.40;;;;;;;;;;5039977;28;20093;-66
2023/01/12 11:13:02;;;;;;;23.70;4.50;;;;;;;;;;5024628;28;20437;-66
2023/01/12 11:15:29;;;;;;;26.23;4.43;;;;;;;;;;5034922;28;20071;-66
2023/01/12 11:17:56;;;;;;;29.58;5.57;;;;;;;;;;5032060;28;20017;-66
2023/01/12 11:20:36;;;;;;;24.40;4.95;;;;;;;;;;5032237;28;20540;-66
2023/01/12 11:23:05;;;;;;;22.67;4.13;;;;;;;;;;5034731;28;20029;-66
2023/01/12 11:25:33;;;;;;;25.55;4.20;;;;;;;;;;5034557;28;20014;-66
2023/01/12 11:27:59;;;;;;;27.15;4.00;;;;;;;;;;5034392;28;20039;-65
2023/01/12 11:30:31;;;;;;;25.27;4.45;;;;;;;;;;5032967;28;20037;-66
2023/01/12 11:33:16;;;;;;;26.20;3.40;;;;;;;;;;5030667;28;20501;-67
2023/01/12 11:35:54;;;;;;;19.90;3.40;;;;;;;;;;5033818;28;20272;-66
2023/01/12 11:38:23;;;;;;;21.08;3.85;;;;;;;;;;5029232;28;20022;-66
2023/01/12 11:40:49;;;;;;;14.90;3.22;;;;;;;;;;5030719;28;20018;-65
2023/01/12 11:46:14;;;;;;;25.67;4.45;;;;;;;;;;5033878;28;20037;-65
2023/01/12 11:48:48;;;;;;;17.90;4.25;;;;;;;;;;5032014;28;20565;-65
2023/01/12 11:51:14;;;;;;;21.77;3.13;;;;;;;;;;5029278;28;20032;-65
2023/01/12 11:53:40;;;;;;;17.98;3.35;;;;;;;;;;5032427;28;20038;-65
2023/01/12 11:56:19;;;;;;;19.90;3.28;;;;;;;;;;5033641;28;20021;-65
2023/01/12 11:58:53;;;;;;;19.20;3.30;;;;;;;;;;5033815;28;20108;-65
2023/01/12 12:01:25;;;;;;;14.43;3.40;;;;;;;;;;5033903;28;20028;-67
2023/01/12 12:03:54;;;;;;;19.57;3.97;;;;;;;;;;5033904;28;20037;-65
2023/01/12 12:06:21;;;;;;;20.15;3.65;;;;;;;;;;5034497;28;20088;-65
2023/01/12 12:08:47;;;;;;;21.50;3.33;;;;;;;;;;5035130;28;20035;-65
2023/01/12 12:11:22;;;;;;;17.95;3.17;;;;;;;;;;5030992;28;20033;-65
2023/01/12 12:13:52;;;;;;;18.77;2.85;;;;;;;;;;5037101;28;20099;-66
2023/01/12 12:16:30;;;;;;;25.20;3.47;;;;;;;;;;5032072;28;20125;-66
2023/01/12 12:19:15;;;;;;;14.57;3.50;;;;;;;;;;5031544;28;20037;-66
2023/01/12 12:21:56;;;;;;;18.10;3.13;;;;;;;;;;5034081;28;20033;-66
2023/01/12 12:24:31;;;;;;;14.18;2.90;;;;;;;;;;5031409;28;20383;-66
2023/01/12 12:27:02;;;;;;;14.30;3.65;;;;;;;;;;5033411;28;20029;-65
2023/01/12 12:29:47;;;;;;;17.15;3.22;;;;;;;;;;5032252;28;20071;-65
2023/01/12 12:32:18;;;;;;;13.30;2.60;;;;;;;;;;5030970;28;20072;-66
2023/01/12 12:34:54;;;;;;;15.13;3.42;;;;;;;;;;5025352;28;20768;-66
2023/01/12 12:37:32;;;;;;;19.50;2.92;;;;;;;;;;5021581;28;20029;-65
2023/01/12 12:40:01;;;;;;;14.35;3.08;;;;;;;;;;5032540;28;20095;-65
2023/01/12 12:45:31;;;;;;;9.55;2.50;;;;;;;;;;5032230;28;20477;-65
2023/01/12 12:48:16;;;;;;;10.27;2.45;;;;;;;;;;5030850;28;20056;-65
2023/01/12 12:50:46;;;;;;;11.95;2.63;;;;;;;;;;5032520;28;20036;-65
2023/01/12 12:53:15;;;;;;;10.82;2.22;;;;;;;;;;5032147;28;20111;-65
2023/01/12 12:55:42;;;;;;;9.35;2.50;;;;;;;;;;5032217;28;20513;-65
2023/01/12 12:58:28;;;;;;;9.30;1.77;;;;;;;;;;5033920;28;20476;-66
2023/01/12 13:00:55;;;;;;;14.65;2.25;;;;;;;;;;5031497;28;20049;-66
2023/01/12 13:03:40;;;;;;;8.98;2.15;;;;;;;;;;5031910;28;20044;-66
2023/01/12 13:06:24;;;;;;;13.02;1.75;;;;;;;;;;5032871;28;20021;-65
2023/01/12 13:08:51;;;;;;;5.05;1.40;;;;;;;;;;5032445;28;20025;-65
2023/01/12 13:11:18;;;;;;;10.52;2.05;;;;;;;;;;5031773;28;20076;-65
2023/01/12 13:13:57;;;;;;;7.22;1.60;;;;;;;;;;5032468;28;20036;-65
2023/01/12 13:16:23;;;;;;;5.97;1.95;;;;;;;;;;5025909;28;20493;-65
2023/01/12 13:18:49;;;;;;;9.75;1.95;;;;;;;;;;5032130;28;20135;-65
2023/01/12 13:21:27;;;;;;;9.82;1.65;;;;;;;;;;5033347;28;20108;-65
2023/01/12 13:23:55;;;;;;;6.40;1.85;;;;;;;;;;5030534;28;20045;-65
2023/01/12 13:26:36;;;;;;;9.88;1.63;;;;;;;;;;5030932;28;20041;-65
2023/01/12 13:29:21;;;;;;;12.43;2.33;;;;;;;;;;5037616;28;20044;-66
2023/01/12 13:31:47;;;;;;;8.90;1.75;;;;;;;;;;5031083;28;20056;-65
2023/01/12 13:34:28;;;;;;;13.23;2.33;;;;;;;;;;5030933;28;20025;-65
2023/01/12 13:37:13;;;;;;;13.07;3.10;;;;;;;;;;5036869;28;20045;-65
2023/01/12 13:39:42;;;;;;;13.13;2.63;;;;;;;;;;5030918;28;20021;-65
2023/01/12 13:44:57;;;;;;;21.75;3.33;;;;;;;;;;5026695;28;20568;-65
2023/01/12 13:47:31;;;;;;;12.52;2.60;;;;;;;;;;5031360;28;20261;-65
2023/01/12 13:49:59;;;;;;;17.50;2.90;;;;;;;;;;5030699;28;20041;-65
2023/01/12 13:52:34;;;;;;;14.82;3.10;;;;;;;;;;5021424;28;20378;-65
2023/01/12 13:55:01;;;;;;;11.93;2.33;;;;;;;;;;5031746;28;20064;-65
2023/01/12 13:57:28;;;;;;;18.42;1.88;;;;;;;;;;5035400;28;20079;-65
2023/01/12 13:59:59;;;;;;;14.65;2.15;;;;;;;;;;5030188;28;20017;-65
2023/01/12 14:02:28;;;;;;;8.52;2.15;;;;;;;;;;5031432;28;20033;-65
2023/01/12 14:04:54;;;;;;;9.32;1.92;;;;;;;;;;5031627;28;20025;-65
2023/01/12 14:07:35;;;;;;;14.63;2.47;;;;;;;;;;5031977;28;20038;-66
2023/01/12 14:10:04;;;;;;;11.32;2.08;;;;;;;;;;5028126;28;20072;-65
2023/01/12 14:12:36;;;;;;;13.65;2.75;;;;;;;;;;5031106;28;20041;-65
2023/01/12 14:18:04;;;;;;;10.52;1.80;;;;;;;;;;5024753;28;20026;-65
2023/01/12 14:20:30;;;;;;;8.57;1.92;;;;;;;;;;5034127;28;20030;-65
2023/01/12 14:23:14;;;;;;;11.07;1.77;;;;;;;;;;5031084;28;20029;-65
2023/01/12 14:25:40;;;;;;;6.00;1.25;;;;;;;;;;5030223;28;20500;-66
2023/01/12 14:28:21;;;;;;;7.03;1.60;;;;;;;;;;5038189;28;20045;-65
2023/01/12 14:30:49;;;;;;;7.53;1.92;;;;;;;;;;5023936;28;20033;-65
2023/01/12 14:33:17;;;;;;;11.70;1.70;;;;;;;;;;5030977;28;20116;-65
2023/01/12 14:35:45;;;;;;;7.25;2.10;;;;;;;;;;5030532;28;20041;-65
2023/01/12 14:38:14;;;;;;;10.07;1.67;;;;;;;;;;5031472;28;20103;-65
2023/01/12 14:40:47;;;;;;;7.95;1.45;;;;;;;;;;5030667;28;20025;-65
2023/01/12 14:48:59;;;;;;;6.10;1.35;;;;;;;;;;5029808;28;20038;-65
2023/01/12 14:51:34;;;;;;;5.40;1.38;;;;;;;;;;5027813;28;20143;-65
2023/01/12 14:54:06;;;;;;;6.10;1.13;;;;;;;;;;5027050;28;20042;-67
2023/01/12 14:56:40;;;;;;;12.82;1.75;;;;;;;;;;5029968;28;20136;-66
2023/01/12 14:59:08;;;;;;;8.57;1.48;;;;;;;;;;5030048;28;20377;-65
2023/01/12 15:01:36;;;;;;;6.30;1.33;;;;;;;;;;5030936;28;20545;-65
2023/01/12 15:04:04;;;;;;;6.72;1.77;;;;;;;;;;5030862;28;20489;-65
2023/01/12 15:06:31;;;;;;;6.80;1.00;;;;;;;;;;5034619;28;20051;-65
2023/01/12 15:09:01;;;;;;;10.82;1.75;;;;;;;;;;5030440;28;20032;-65
2023/01/12 15:11:30;;;;;;;9.57;1.60;;;;;;;;;;5030455;28;20025;-65
2023/01/12 15:13:57;;;;;;;5.72;1.15;;;;;;;;;;5023616;28;20390;-66
2023/01/12 15:27:24;;;;;;;5.00;1.80;;;;;;;;;;5037486;28;20120;-67
2023/01/12 15:29:50;;;;;;;5.65;1.05;;;;;;;;;;5034061;28;20409;-67
2023/01/12 15:32:34;;;;;;;5.78;1.20;;;;;;;;;;5034308;28;20412;-66
2023/01/12 15:35:00;;;;;;;4.88;1.27;;;;;;;;;;5034320;28;20071;-66
2023/01/12 15:37:27;;;;;;;7.50;1.60;;;;;;;;;;5034173;28;20017;-66
2023/01/12 15:39:55;;;;;;;4.00;1.10;;;;;;;;;;5028093;28;20040;-66